sensor_id;sensor_type;location;lat;lon;timestamp;temperature;humidity
34644;DHT22;26931;43.498;-1.506;2023-02-13T00:01:32;7.20;73.20
34644;DHT22;26931;43.498;-1.506;2023-02-13T00:03:58;7.20;73.20
34644;DHT22;26931;43.498;-1.506;2023-02-13T00:06:24;7.30;73.70
34644;DHT22;26931;43.498;-1.506;2023-02-13T00:08:50;7.20;73.70
34644;DHT22;26931;43.498;-1.506;2023-02-13T00:11:16;7.00;73.70
34644;DHT22;26931;43.498;-1.506;2023-02-13T00:13:42;7.10;74.20
34644;DHT22;26931;43.498;-1.506;2023-02-13T00:16:08;7.10;74.30
34644;DHT22;26931;43.498;-1.506;2023-02-13T00:18:35;7.10;74.40
34644;DHT22;26931;43.498;-1.506;2023-02-13T00:21:05;7.10;75.30
34644;DHT22;26931;43.498;-1.506;2023-02-13T00:23:32;6.90;74.50
34644;DHT22;26931;43.498;-1.506;2023-02-13T00:25:58;6.80;74.70
34644;DHT22;26931;43.498;-1.506;2023-02-13T00:28:23;6.80;75.10
34644;DHT22;26931;43.498;-1.506;2023-02-13T00:30:49;6.90;75.20
34644;DHT22;26931;43.498;-1.506;2023-02-13T00:33:15;6.70;75.20
34644;DHT22;26931;43.498;-1.506;2023-02-13T00:35:41;6.60;75.50
34644;DHT22;26931;43.498;-1.506;2023-02-13T00:38:07;6.50;75.70
34644;DHT22;26931;43.498;-1.506;2023-02-13T00:40:33;6.40;75.90
34644;DHT22;26931;43.498;-1.506;2023-02-13T00:42:59;6.50;76.20
34644;DHT22;26931;43.498;-1.506;2023-02-13T00:45:24;6.50;76.10
34644;DHT22;26931;43.498;-1.506;2023-02-13T00:47:50;6.50;76.20
34644;DHT22;26931;43.498;-1.506;2023-02-13T00:50:16;6.50;76.50
34644;DHT22;26931;43.498;-1.506;2023-02-13T00:52:42;6.50;76.50
34644;DHT22;26931;43.498;-1.506;2023-02-13T00:55:08;6.40;76.50
34644;DHT22;26931;43.498;-1.506;2023-02-13T00:57:34;6.40;76.70
34644;DHT22;26931;43.498;-1.506;2023-02-13T01:00:00;6.40;76.80
34644;DHT22;26931;43.498;-1.506;2023-02-13T01:02:25;6.40;76.80
34644;DHT22;26931;43.498;-1.506;2023-02-13T01:04:51;6.40;77.00
34644;DHT22;26931;43.498;-1.506;2023-02-13T01:07:17;6.40;77.10
34644;DHT22;26931;43.498;-1.506;2023-02-13T01:09:43;6.40;77.10
34644;DHT22;26931;43.498;-1.506;2023-02-13T01:12:09;6.30;77.00
34644;DHT22;26931;43.498;-1.506;2023-02-13T01:14:35;6.20;77.10
34644;DHT22;26931;43.498;-1.506;2023-02-13T01:17:00;6.10;77.40
34644;DHT22;26931;43.498;-1.506;2023-02-13T01:19:26;6.10;77.40
34644;DHT22;26931;43.498;-1.506;2023-02-13T01:21:52;6.10;77.60
34644;DHT22;26931;43.498;-1.506;2023-02-13T01:24:18;6.00;77.80
34644;DHT22;26931;43.498;-1.506;2023-02-13T01:26:44;5.90;77.80
34644;DHT22;26931;43.498;-1.506;2023-02-13T01:29:13;5.90;77.80
34644;DHT22;26931;43.498;-1.506;2023-02-13T01:31:39;5.90;78.30
34644;DHT22;26931;43.498;-1.506;2023-02-13T01:34:04;5.90;77.90
34644;DHT22;26931;43.498;-1.506;2023-02-13T01:36:30;5.70;78.00
34644;DHT22;26931;43.498;-1.506;2023-02-13T01:38:57;5.80;78.30
34644;DHT22;26931;43.498;-1.506;2023-02-13T01:41:23;5.90;78.40
34644;DHT22;26931;43.498;-1.506;2023-02-13T01:43:53;5.90;78.40
34644;DHT22;26931;43.498;-1.506;2023-02-13T01:46:21;5.90;78.60
34644;DHT22;26931;43.498;-1.506;2023-02-13T01:48:48;5.80;78.60
34644;DHT22;26931;43.498;-1.506;2023-02-13T01:51:17;5.80;78.70
34644;DHT22;26931;43.498;-1.506;2023-02-13T01:53:45;5.80;78.70
34644;DHT22;26931;43.498;-1.506;2023-02-13T01:56:21;5.70;78.80
34644;DHT22;26931;43.498;-1.506;2023-02-13T01:58:48;5.60;79.00
34644;DHT22;26931;43.498;-1.506;2023-02-13T02:01:15;5.70;79.40
34644;DHT22;26931;43.498;-1.506;2023-02-13T02:03:55;5.60;79.50
34644;DHT22;26931;43.498;-1.506;2023-02-13T02:06:27;5.50;79.60
34644;DHT22;26931;43.498;-1.506;2023-02-13T02:08:53;5.50;79.70
34644;DHT22;26931;43.498;-1.506;2023-02-13T02:11:26;5.60;79.90
34644;DHT22;26931;43.498;-1.506;2023-02-13T02:13:53;5.40;80.00
34644;DHT22;26931;43.498;-1.506;2023-02-13T02:16:19;5.40;80.10
34644;DHT22;26931;43.498;-1.506;2023-02-13T02:18:45;5.40;80.20
34644;DHT22;26931;43.498;-1.506;2023-02-13T02:21:21;5.40;80.00
34644;DHT22;26931;43.498;-1.506;2023-02-13T02:42:33;5.20;80.70
34644;DHT22;26931;43.498;-1.506;2023-02-13T02:50:32;5.40;80.20
34644;DHT22;26931;43.498;-1.506;2023-02-13T02:53:06;5.50;80.10
34644;DHT22;26931;43.498;-1.506;2023-02-13T02:58:17;5.60;79.80
34644;DHT22;26931;43.498;-1.506;2023-02-13T03:01:03;5.50;79.70
34644;DHT22;26931;43.498;-1.506;2023-02-13T03:03:48;5.60;79.60
34644;DHT22;26931;43.498;-1.506;2023-02-13T03:06:35;5.50;79.50
34644;DHT22;26931;43.498;-1.506;2023-02-13T03:09:03;5.50;79.60
34644;DHT22;26931;43.498;-1.506;2023-02-13T03:11:49;5.40;79.50
34644;DHT22;26931;43.498;-1.506;2023-02-13T03:14:34;5.50;79.50
34644;DHT22;26931;43.498;-1.506;2023-02-13T03:17:00;5.50;79.40
34644;DHT22;26931;43.498;-1.506;2023-02-13T03:19:54;5.50;79.30
34644;DHT22;26931;43.498;-1.506;2023-02-13T03:22:44;5.50;79.30
34644;DHT22;26931;43.498;-1.506;2023-02-13T03:25:27;5.50;79.40
34644;DHT22;26931;43.498;-1.506;2023-02-13T03:28:06;5.50;79.20
34644;DHT22;26931;43.498;-1.506;2023-02-13T03:41:41;5.50;79.20
34644;DHT22;26931;43.498;-1.506;2023-02-13T03:44:11;5.50;79.20
34644;DHT22;26931;43.498;-1.506;2023-02-13T03:46:40;5.40;79.20
34644;DHT22;26931;43.498;-1.506;2023-02-13T03:49:06;5.40;79.20
34644;DHT22;26931;43.498;-1.506;2023-02-13T03:52:02;5.40;79.20
34644;DHT22;26931;43.498;-1.506;2023-02-13T03:54:32;5.50;79.20
34644;DHT22;26931;43.498;-1.506;2023-02-13T03:57:18;5.60;79.30
34644;DHT22;26931;43.498;-1.506;2023-02-13T04:00:04;5.30;79.40
34644;DHT22;26931;43.498;-1.506;2023-02-13T04:02:32;5.40;79.60
34644;DHT22;26931;43.498;-1.506;2023-02-13T04:05:12;5.50;79.20
34644;DHT22;26931;43.498;-1.506;2023-02-13T04:07:39;5.40;79.30
34644;DHT22;26931;43.498;-1.506;2023-02-13T04:10:06;5.40;79.40
34644;DHT22;26931;43.498;-1.506;2023-02-13T04:15:15;5.30;79.30
34644;DHT22;26931;43.498;-1.506;2023-02-13T04:18:19;5.30;80.50
34644;DHT22;26931;43.498;-1.506;2023-02-13T04:20:35;5.20;79.60
34644;DHT22;26931;43.498;-1.506;2023-02-13T04:23:05;5.20;79.50
34644;DHT22;26931;43.498;-1.506;2023-02-13T04:25:31;5.30;79.70
34644;DHT22;26931;43.498;-1.506;2023-02-13T04:27:57;5.30;79.70
34644;DHT22;26931;43.498;-1.506;2023-02-13T04:30:23;5.50;79.80
34644;DHT22;26931;43.498;-1.506;2023-02-13T04:32:49;5.10;79.70
34644;DHT22;26931;43.498;-1.506;2023-02-13T04:35:17;5.30;79.80
34644;DHT22;26931;43.498;-1.506;2023-02-13T04:37:43;5.40;80.10
34644;DHT22;26931;43.498;-1.506;2023-02-13T04:40:09;5.20;80.10
34644;DHT22;26931;43.498;-1.506;2023-02-13T04:42:35;5.10;80.30
34644;DHT22;26931;43.498;-1.506;2023-02-13T04:45:01;5.00;80.30
34644;DHT22;26931;43.498;-1.506;2023-02-13T04:47:26;5.00;80.40
34644;DHT22;26931;43.498;-1.506;2023-02-13T04:49:52;5.00;80.60
34644;DHT22;26931;43.498;-1.506;2023-02-13T04:52:18;4.80;80.30
34644;DHT22;26931;43.498;-1.506;2023-02-13T04:54:44;4.90;80.40
34644;DHT22;26931;43.498;-1.506;2023-02-13T04:57:10;5.10;81.30
34644;DHT22;26931;43.498;-1.506;2023-02-13T04:59:36;4.80;80.50
34644;DHT22;26931;43.498;-1.506;2023-02-13T05:02:02;5.10;80.70
34644;DHT22;26931;43.498;-1.506;2023-02-13T05:04:27;4.90;80.30
34644;DHT22;26931;43.498;-1.506;2023-02-13T05:06:53;4.90;80.30
34644;DHT22;26931;43.498;-1.506;2023-02-13T05:09:19;4.90;80.10
34644;DHT22;26931;43.498;-1.506;2023-02-13T05:11:45;4.90;79.80
34644;DHT22;26931;43.498;-1.506;2023-02-13T05:14:11;4.80;80.00
34644;DHT22;26931;43.498;-1.506;2023-02-13T05:16:37;4.80;80.10
34644;DHT22;26931;43.498;-1.506;2023-02-13T05:19:02;4.70;80.30
34644;DHT22;26931;43.498;-1.506;2023-02-13T05:21:28;4.80;80.40
34644;DHT22;26931;43.498;-1.506;2023-02-13T05:24:12;4.80;80.30
34644;DHT22;26931;43.498;-1.506;2023-02-13T05:26:38;4.80;80.20
34644;DHT22;26931;43.498;-1.506;2023-02-13T05:29:04;4.80;80.40
34644;DHT22;26931;43.498;-1.506;2023-02-13T05:31:54;4.80;80.30
34644;DHT22;26931;43.498;-1.506;2023-02-13T05:34:20;4.90;80.30
34644;DHT22;26931;43.498;-1.506;2023-02-13T05:36:49;5.00;80.20
34644;DHT22;26931;43.498;-1.506;2023-02-13T05:39:15;4.80;79.70
34644;DHT22;26931;43.498;-1.506;2023-02-13T05:41:42;4.80;79.80
34644;DHT22;26931;43.498;-1.506;2023-02-13T05:44:08;4.80;79.60
34644;DHT22;26931;43.498;-1.506;2023-02-13T05:46:35;4.80;79.60
34644;DHT22;26931;43.498;-1.506;2023-02-13T05:49:01;4.70;79.30
34644;DHT22;26931;43.498;-1.506;2023-02-13T05:51:27;4.70;79.40
34644;DHT22;26931;43.498;-1.506;2023-02-13T05:53:53;4.60;79.30
34644;DHT22;26931;43.498;-1.506;2023-02-13T05:56:19;4.70;79.20
34644;DHT22;26931;43.498;-1.506;2023-02-13T05:58:44;4.70;79.00
34644;DHT22;26931;43.498;-1.506;2023-02-13T06:01:10;4.60;79.10
34644;DHT22;26931;43.498;-1.506;2023-02-13T06:03:36;4.60;79.20
34644;DHT22;26931;43.498;-1.506;2023-02-13T06:06:04;4.70;79.20
34644;DHT22;26931;43.498;-1.506;2023-02-13T06:08:30;4.70;79.20
34644;DHT22;26931;43.498;-1.506;2023-02-13T06:10:56;4.70;79.80
34644;DHT22;26931;43.498;-1.506;2023-02-13T06:13:22;4.80;79.10
34644;DHT22;26931;43.498;-1.506;2023-02-13T06:15:48;4.70;78.80
34644;DHT22;26931;43.498;-1.506;2023-02-13T06:18:17;4.60;79.20
34644;DHT22;26931;43.498;-1.506;2023-02-13T06:20:43;4.70;79.40
34644;DHT22;26931;43.498;-1.506;2023-02-13T06:23:09;4.90;79.50
34644;DHT22;26931;43.498;-1.506;2023-02-13T06:25:35;4.70;79.40
34644;DHT22;26931;43.498;-1.506;2023-02-13T06:28:01;4.70;79.40
34644;DHT22;26931;43.498;-1.506;2023-02-13T06:30:27;4.70;79.40
34644;DHT22;26931;43.498;-1.506;2023-02-13T06:32:53;4.90;79.40
34644;DHT22;26931;43.498;-1.506;2023-02-13T06:35:19;5.00;79.20
34644;DHT22;26931;43.498;-1.506;2023-02-13T06:37:45;4.80;78.90
34644;DHT22;26931;43.498;-1.506;2023-02-13T06:40:11;4.70;78.70
34644;DHT22;26931;43.498;-1.506;2023-02-13T06:42:37;4.80;78.90
34644;DHT22;26931;43.498;-1.506;2023-02-13T06:45:04;4.60;78.80
34644;DHT22;26931;43.498;-1.506;2023-02-13T06:47:30;4.80;78.80
34644;DHT22;26931;43.498;-1.506;2023-02-13T06:49:56;4.60;78.70
34644;DHT22;26931;43.498;-1.506;2023-02-13T06:52:22;4.60;78.80
34644;DHT22;26931;43.498;-1.506;2023-02-13T06:54:48;4.60;78.90
34644;DHT22;26931;43.498;-1.506;2023-02-13T06:57:14;4.50;78.70
34644;DHT22;26931;43.498;-1.506;2023-02-13T06:59:40;4.50;78.90
34644;DHT22;26931;43.498;-1.506;2023-02-13T07:02:07;4.60;78.70
34644;DHT22;26931;43.498;-1.506;2023-02-13T07:04:33;4.50;78.80
34644;DHT22;26931;43.498;-1.506;2023-02-13T07:06:59;4.50;78.80
34644;DHT22;26931;43.498;-1.506;2023-02-13T07:09:24;4.80;79.10
34644;DHT22;26931;43.498;-1.506;2023-02-13T07:11:50;4.50;78.80
34644;DHT22;26931;43.498;-1.506;2023-02-13T07:14:16;4.60;78.80
34644;DHT22;26931;43.498;-1.506;2023-02-13T07:16:42;4.60;78.60
34644;DHT22;26931;43.498;-1.506;2023-02-13T07:19:08;4.80;78.70
34644;DHT22;26931;43.498;-1.506;2023-02-13T07:21:34;4.60;78.30
34644;DHT22;26931;43.498;-1.506;2023-02-13T07:24:00;4.60;78.60
34644;DHT22;26931;43.498;-1.506;2023-02-13T07:26:26;4.60;78.70
34644;DHT22;26931;43.498;-1.506;2023-02-13T07:28:52;4.50;78.60
34644;DHT22;26931;43.498;-1.506;2023-02-13T07:31:18;4.50;79.10
34644;DHT22;26931;43.498;-1.506;2023-02-13T07:33:47;4.50;79.50
34644;DHT22;26931;43.498;-1.506;2023-02-13T07:36:13;4.50;79.80
34644;DHT22;26931;43.498;-1.506;2023-02-13T07:38:38;4.60;80.10
34644;DHT22;26931;43.498;-1.506;2023-02-13T07:41:04;4.60;80.20
34644;DHT22;26931;43.498;-1.506;2023-02-13T07:43:30;4.60;80.50
34644;DHT22;26931;43.498;-1.506;2023-02-13T07:46:00;4.60;80.80
34644;DHT22;26931;43.498;-1.506;2023-02-13T07:48:26;4.60;80.80
34644;DHT22;26931;43.498;-1.506;2023-02-13T07:50:52;4.60;81.30
34644;DHT22;26931;43.498;-1.506;2023-02-13T07:53:18;4.90;81.80
34644;DHT22;26931;43.498;-1.506;2023-02-13T07:55:44;4.70;81.70
34644;DHT22;26931;43.498;-1.506;2023-02-13T07:58:10;4.70;82.10
34644;DHT22;26931;43.498;-1.506;2023-02-13T08:00:36;4.70;82.10
34644;DHT22;26931;43.498;-1.506;2023-02-13T08:03:02;4.50;82.40
34644;DHT22;26931;43.498;-1.506;2023-02-13T08:05:28;4.60;82.80
34644;DHT22;26931;43.498;-1.506;2023-02-13T08:07:55;4.60;83.20
34644;DHT22;26931;43.498;-1.506;2023-02-13T08:10:21;4.60;83.10
34644;DHT22;26931;43.498;-1.506;2023-02-13T08:13:06;4.80;83.60
34644;DHT22;26931;43.498;-1.506;2023-02-13T08:15:32;4.70;83.60
34644;DHT22;26931;43.498;-1.506;2023-02-13T08:17:58;4.70;83.40
34644;DHT22;26931;43.498;-1.506;2023-02-13T08:20:24;4.70;83.50
34644;DHT22;26931;43.498;-1.506;2023-02-13T08:22:50;4.70;83.60
34644;DHT22;26931;43.498;-1.506;2023-02-13T08:25:16;4.70;83.80
34644;DHT22;26931;43.498;-1.506;2023-02-13T08:27:42;4.70;83.70
34644;DHT22;26931;43.498;-1.506;2023-02-13T08:30:08;4.80;83.80
34644;DHT22;26931;43.498;-1.506;2023-02-13T08:32:34;4.80;83.60
34644;DHT22;26931;43.498;-1.506;2023-02-13T08:35:00;4.90;83.50
34644;DHT22;26931;43.498;-1.506;2023-02-13T08:37:26;5.00;83.60
34644;DHT22;26931;43.498;-1.506;2023-02-13T08:39:52;5.00;83.40
34644;DHT22;26931;43.498;-1.506;2023-02-13T08:42:17;5.10;83.20
34644;DHT22;26931;43.498;-1.506;2023-02-13T08:44:43;5.10;82.80
34644;DHT22;26931;43.498;-1.506;2023-02-13T08:47:09;5.20;82.70
34644;DHT22;26931;43.498;-1.506;2023-02-13T08:49:35;5.30;82.40
34644;DHT22;26931;43.498;-1.506;2023-02-13T08:52:01;5.50;82.60
34644;DHT22;26931;43.498;-1.506;2023-02-13T08:54:28;5.30;82.30
34644;DHT22;26931;43.498;-1.506;2023-02-13T08:56:54;5.40;82.20
34644;DHT22;26931;43.498;-1.506;2023-02-13T08:59:20;5.50;82.00
34644;DHT22;26931;43.498;-1.506;2023-02-13T09:01:47;5.50;81.70
34644;DHT22;26931;43.498;-1.506;2023-02-13T09:04:13;5.70;81.60
34644;DHT22;26931;43.498;-1.506;2023-02-13T09:06:43;5.70;81.40
34644;DHT22;26931;43.498;-1.506;2023-02-13T09:09:09;5.70;81.10
34644;DHT22;26931;43.498;-1.506;2023-02-13T09:11:35;5.80;81.00
34644;DHT22;26931;43.498;-1.506;2023-02-13T09:14:01;5.90;80.80
34644;DHT22;26931;43.498;-1.506;2023-02-13T09:16:27;6.00;80.70
34644;DHT22;26931;43.498;-1.506;2023-02-13T09:18:52;6.00;80.50
34644;DHT22;26931;43.498;-1.506;2023-02-13T09:21:19;6.10;81.10
34644;DHT22;26931;43.498;-1.506;2023-02-13T09:23:45;6.40;80.50
34644;DHT22;26931;43.498;-1.506;2023-02-13T09:26:12;6.20;80.20
34644;DHT22;26931;43.498;-1.506;2023-02-13T09:28:38;6.30;80.30
34644;DHT22;26931;43.498;-1.506;2023-02-13T09:31:08;6.40;80.20
34644;DHT22;26931;43.498;-1.506;2023-02-13T09:33:35;6.50;80.00
34644;DHT22;26931;43.498;-1.506;2023-02-13T09:36:07;6.60;79.90
34644;DHT22;26931;43.498;-1.506;2023-02-13T09:38:33;6.50;79.60
34644;DHT22;26931;43.498;-1.506;2023-02-13T09:41:00;6.70;79.30
34644;DHT22;26931;43.498;-1.506;2023-02-13T09:43:27;6.90;79.10
34644;DHT22;26931;43.498;-1.506;2023-02-13T09:45:57;6.90;78.90
34644;DHT22;26931;43.498;-1.506;2023-02-13T09:48:28;7.00;78.80
34644;DHT22;26931;43.498;-1.506;2023-02-13T09:50:55;7.30;78.80
34644;DHT22;26931;43.498;-1.506;2023-02-13T09:53:21;7.10;78.30
34644;DHT22;26931;43.498;-1.506;2023-02-13T09:58:55;7.30;78.10
34644;DHT22;26931;43.498;-1.506;2023-02-13T10:01:25;7.40;78.00
34644;DHT22;26931;43.498;-1.506;2023-02-13T10:06:23;7.60;77.70
34644;DHT22;26931;43.498;-1.506;2023-02-13T10:18:52;8.40;77.20
34644;DHT22;26931;43.498;-1.506;2023-02-13T10:21:20;8.30;77.10
34644;DHT22;26931;43.498;-1.506;2023-02-13T10:23:53;8.60;77.00
34644;DHT22;26931;43.498;-1.506;2023-02-13T10:26:21;8.40;76.90
34644;DHT22;26931;43.498;-1.506;2023-02-13T10:29:03;8.60;76.80
34644;DHT22;26931;43.498;-1.506;2023-02-13T10:31:48;8.70;76.60
34644;DHT22;26931;43.498;-1.506;2023-02-13T10:34:16;8.90;76.50
34644;DHT22;26931;43.498;-1.506;2023-02-13T10:36:43;9.00;76.40
34644;DHT22;26931;43.498;-1.506;2023-02-13T10:39:26;9.10;76.30
34644;DHT22;26931;43.498;-1.506;2023-02-13T10:41:54;9.20;76.20
34644;DHT22;26931;43.498;-1.506;2023-02-13T10:54:55;9.80;75.70
34644;DHT22;26931;43.498;-1.506;2023-02-13T11:00:34;10.00;75.50
34644;DHT22;26931;43.498;-1.506;2023-02-13T11:03:00;10.30;75.50
34644;DHT22;26931;43.498;-1.506;2023-02-13T11:05:32;10.30;75.10
34644;DHT22;26931;43.498;-1.506;2023-02-13T11:08:01;10.50;75.20
34644;DHT22;26931;43.498;-1.506;2023-02-13T11:10:27;10.70;75.00
34644;DHT22;26931;43.498;-1.506;2023-02-13T11:12:53;10.80;74.90
34644;DHT22;26931;43.498;-1.506;2023-02-13T11:15:24;10.80;74.50
34644;DHT22;26931;43.498;-1.506;2023-02-13T11:17:51;10.80;74.30
34644;DHT22;26931;43.498;-1.506;2023-02-13T11:20:31;10.90;74.10
34644;DHT22;26931;43.498;-1.506;2023-02-13T11:25:41;11.20;73.10
34644;DHT22;26931;43.498;-1.506;2023-02-13T11:28:18;11.30;72.70
34644;DHT22;26931;43.498;-1.506;2023-02-13T11:30:45;11.40;72.30
34644;DHT22;26931;43.498;-1.506;2023-02-13T11:35:41;11.70;71.90
34644;DHT22;26931;43.498;-1.506;2023-02-13T11:40:43;11.80;71.10
34644;DHT22;26931;43.498;-1.506;2023-02-13T11:43:26;11.80;70.70
34644;DHT22;26931;43.498;-1.506;2023-02-13T11:46:02;12.10;70.30
34644;DHT22;26931;43.498;-1.506;2023-02-13T11:48:28;12.00;69.70
34644;DHT22;26931;43.498;-1.506;2023-02-13T11:50:54;12.20;69.30
34644;DHT22;26931;43.498;-1.506;2023-02-13T11:53:23;12.30;68.90
34644;DHT22;26931;43.498;-1.506;2023-02-13T11:56:11;12.40;68.40
34644;DHT22;26931;43.498;-1.506;2023-02-13T11:58:37;12.50;67.80
34644;DHT22;26931;43.498;-1.506;2023-02-13T12:01:08;12.60;66.60
34644;DHT22;26931;43.498;-1.506;2023-02-13T12:03:34;12.60;65.20
34644;DHT22;26931;43.498;-1.506;2023-02-13T12:08:35;12.70;61.20
34644;DHT22;26931;43.498;-1.506;2023-02-13T12:11:02;12.80;59.60
34644;DHT22;26931;43.498;-1.506;2023-02-13T12:13:32;12.70;58.20
34644;DHT22;26931;43.498;-1.506;2023-02-13T12:16:01;12.80;56.90
34644;DHT22;26931;43.498;-1.506;2023-02-13T12:18:33;13.00;55.70
34644;DHT22;26931;43.498;-1.506;2023-02-13T12:26:47;13.10;53.60
34644;DHT22;26931;43.498;-1.506;2023-02-13T12:31:17;13.20;52.70
34644;DHT22;26931;43.498;-1.506;2023-02-13T12:33:58;13.20;52.40
34644;DHT22;26931;43.498;-1.506;2023-02-13T12:36:46;13.40;51.90
34644;DHT22;26931;43.498;-1.506;2023-02-13T12:49:27;13.70;48.40
34644;DHT22;26931;43.498;-1.506;2023-02-13T12:52:07;13.80;47.70
34644;DHT22;26931;43.498;-1.506;2023-02-13T12:57:04;13.80;46.60
34644;DHT22;26931;43.498;-1.506;2023-02-13T13:07:39;14.00;45.00
34644;DHT22;26931;43.498;-1.506;2023-02-13T13:10:19;14.00;44.60
34644;DHT22;26931;43.498;-1.506;2023-02-13T13:18:06;14.30;43.20
34644;DHT22;26931;43.498;-1.506;2023-02-13T13:27:54;14.40;42.40
34644;DHT22;26931;43.498;-1.506;2023-02-13T13:30:23;14.50;42.40
34644;DHT22;26931;43.498;-1.506;2023-02-13T13:32:51;14.60;41.80
34644;DHT22;26931;43.498;-1.506;2023-02-13T13:35:18;14.40;41.50
34644;DHT22;26931;43.498;-1.506;2023-02-13T13:37:46;14.60;41.50
34644;DHT22;26931;43.498;-1.506;2023-02-13T13:42:46;14.70;41.10
34644;DHT22;26931;43.498;-1.506;2023-02-13T13:50:20;14.80;40.90
34644;DHT22;26931;43.498;-1.506;2023-02-13T14:01:24;15.00;41.70
34644;DHT22;26931;43.498;-1.506;2023-02-13T14:03:50;15.00;41.70
34644;DHT22;26931;43.498;-1.506;2023-02-13T14:06:17;15.00;42.10
34644;DHT22;26931;43.498;-1.506;2023-02-13T14:13:53;15.20;43.20
34644;DHT22;26931;43.498;-1.506;2023-02-13T14:16:38;15.30;43.70
34644;DHT22;26931;43.498;-1.506;2023-02-13T14:19:05;15.40;44.20
34644;DHT22;26931;43.498;-1.506;2023-02-13T14:21:31;15.40;44.20
34644;DHT22;26931;43.498;-1.506;2023-02-13T14:23:57;15.50;44.40
34644;DHT22;26931;43.498;-1.506;2023-02-13T14:26:32;15.60;44.50
34644;DHT22;26931;43.498;-1.506;2023-02-13T14:31:34;15.70;45.10
34644;DHT22;26931;43.498;-1.506;2023-02-13T14:34:04;15.70;45.30
34644;DHT22;26931;43.498;-1.506;2023-02-13T14:36:34;15.70;45.50
34644;DHT22;26931;43.498;-1.506;2023-02-13T14:39:05;15.80;45.40
34644;DHT22;26931;43.498;-1.506;2023-02-13T14:44:15;15.80;45.40
34644;DHT22;26931;43.498;-1.506;2023-02-13T14:46:43;15.80;45.20
34644;DHT22;26931;43.498;-1.506;2023-02-13T14:49:16;15.80;45.00
34644;DHT22;26931;43.498;-1.506;2023-02-13T14:51:45;16.00;44.80
34644;DHT22;26931;43.498;-1.506;2023-02-13T14:54:16;15.80;44.10
34644;DHT22;26931;43.498;-1.506;2023-02-13T14:56:45;15.90;43.80
34644;DHT22;26931;43.498;-1.506;2023-02-13T14:59:15;15.90;43.60
34644;DHT22;26931;43.498;-1.506;2023-02-13T15:01:45;15.90;43.10
34644;DHT22;26931;43.498;-1.506;2023-02-13T15:04:20;16.00;43.30
34644;DHT22;26931;43.498;-1.506;2023-02-13T15:06:47;15.90;42.40
34644;DHT22;26931;43.498;-1.506;2023-02-13T15:09:23;16.10;42.30
34644;DHT22;26931;43.498;-1.506;2023-02-13T15:11:51;15.90;42.10
34644;DHT22;26931;43.498;-1.506;2023-02-13T15:14:20;15.90;41.80
34644;DHT22;26931;43.498;-1.506;2023-02-13T15:16:47;15.90;41.50
34644;DHT22;26931;43.498;-1.506;2023-02-13T15:19:15;15.90;41.30
34644;DHT22;26931;43.498;-1.506;2023-02-13T15:21:49;16.00;40.90
34644;DHT22;26931;43.498;-1.506;2023-02-13T15:24:15;15.90;40.50
34644;DHT22;26931;43.498;-1.506;2023-02-13T15:26:41;16.00;40.30
34644;DHT22;26931;43.498;-1.506;2023-02-13T15:29:17;16.00;40.20
34644;DHT22;26931;43.498;-1.506;2023-02-13T15:31:43;15.90;40.20
34644;DHT22;26931;43.498;-1.506;2023-02-13T15:34:30;16.00;40.10
34644;DHT22;26931;43.498;-1.506;2023-02-13T15:36:59;16.00;40.20
34644;DHT22;26931;43.498;-1.506;2023-02-13T15:39:26;16.10;40.40
34644;DHT22;26931;43.498;-1.506;2023-02-13T15:41:56;15.90;40.30
34644;DHT22;26931;43.498;-1.506;2023-02-13T15:44:25;15.90;40.40
34644;DHT22;26931;43.498;-1.506;2023-02-13T15:46:52;15.90;40.20
34644;DHT22;26931;43.498;-1.506;2023-02-13T15:49:22;15.90;40.30
34644;DHT22;26931;43.498;-1.506;2023-02-13T15:51:49;15.90;40.50
34644;DHT22;26931;43.498;-1.506;2023-02-13T15:54:25;15.80;40.30
34644;DHT22;26931;43.498;-1.506;2023-02-13T15:56:52;15.90;40.40
34644;DHT22;26931;43.498;-1.506;2023-02-13T15:59:19;15.90;40.40
34644;DHT22;26931;43.498;-1.506;2023-02-13T16:01:45;15.90;40.50
34644;DHT22;26931;43.498;-1.506;2023-02-13T16:04:11;15.90;40.60
34644;DHT22;26931;43.498;-1.506;2023-02-13T16:06:39;15.90;40.60
34644;DHT22;26931;43.498;-1.506;2023-02-13T16:09:06;15.80;40.60
34644;DHT22;26931;43.498;-1.506;2023-02-13T16:14:05;15.80;40.80
34644;DHT22;26931;43.498;-1.506;2023-02-13T16:19:13;16.00;41.00
34644;DHT22;26931;43.498;-1.506;2023-02-13T16:21:40;15.80;40.90
34644;DHT22;26931;43.498;-1.506;2023-02-13T16:24:06;15.60;40.80
34644;DHT22;26931;43.498;-1.506;2023-02-13T16:26:33;15.70;40.90
34644;DHT22;26931;43.498;-1.506;2023-02-13T16:29:00;15.70;40.80
34644;DHT22;26931;43.498;-1.506;2023-02-13T16:31:26;15.70;40.70
34644;DHT22;26931;43.498;-1.506;2023-02-13T16:33:52;15.80;40.60
34644;DHT22;26931;43.498;-1.506;2023-02-13T16:36:25;15.70;40.50
34644;DHT22;26931;43.498;-1.506;2023-02-13T16:38:51;15.60;40.40
34644;DHT22;26931;43.498;-1.506;2023-02-13T16:43:57;15.60;40.00
34644;DHT22;26931;43.498;-1.506;2023-02-13T16:51:32;15.50;39.50
34644;DHT22;26931;43.498;-1.506;2023-02-13T16:54:02;15.60;39.50
34644;DHT22;26931;43.498;-1.506;2023-02-13T16:56:36;15.50;39.40
34644;DHT22;26931;43.498;-1.506;2023-02-13T16:59:03;15.50;39.40
34644;DHT22;26931;43.498;-1.506;2023-02-13T17:01:29;15.40;39.40
34644;DHT22;26931;43.498;-1.506;2023-02-13T17:03:55;15.40;39.40
34644;DHT22;26931;43.498;-1.506;2023-02-13T17:06:23;15.30;39.40
34644;DHT22;26931;43.498;-1.506;2023-02-13T17:08:48;15.20;39.40
34644;DHT22;26931;43.498;-1.506;2023-02-13T17:11:16;15.30;39.50
34644;DHT22;26931;43.498;-1.506;2023-02-13T17:13:43;15.30;39.60
34644;DHT22;26931;43.498;-1.506;2023-02-13T17:16:09;15.20;39.60
34644;DHT22;26931;43.498;-1.506;2023-02-13T17:18:34;15.20;39.70
34644;DHT22;26931;43.498;-1.506;2023-02-13T17:21:00;15.20;39.90
34644;DHT22;26931;43.498;-1.506;2023-02-13T17:23:26;14.90;39.80
34644;DHT22;26931;43.498;-1.506;2023-02-13T17:25:52;15.10;40.00
34644;DHT22;26931;43.498;-1.506;2023-02-13T17:28:19;15.10;40.10
34644;DHT22;26931;43.498;-1.506;2023-02-13T17:30:45;15.00;40.20
34644;DHT22;26931;43.498;-1.506;2023-02-13T17:33:30;15.00;40.20
34644;DHT22;26931;43.498;-1.506;2023-02-13T17:35:58;15.00;40.30
34644;DHT22;26931;43.498;-1.506;2023-02-13T17:38:24;14.90;40.30
34644;DHT22;26931;43.498;-1.506;2023-02-13T17:40:50;14.80;40.30
34644;DHT22;26931;43.498;-1.506;2023-02-13T17:43:16;14.90;40.60
34644;DHT22;26931;43.498;-1.506;2023-02-13T17:45:42;14.80;40.60
34644;DHT22;26931;43.498;-1.506;2023-02-13T17:48:08;14.80;40.70
34644;DHT22;26931;43.498;-1.506;2023-02-13T17:50:34;14.80;40.80
34644;DHT22;26931;43.498;-1.506;2023-02-13T17:53:01;14.70;40.90
34644;DHT22;26931;43.498;-1.506;2023-02-13T17:55:28;14.70;40.90
34644;DHT22;26931;43.498;-1.506;2023-02-13T17:57:54;14.70;41.00
34644;DHT22;26931;43.498;-1.506;2023-02-13T18:00:24;14.70;41.00
34644;DHT22;26931;43.498;-1.506;2023-02-13T18:02:52;14.60;41.10
34644;DHT22;26931;43.498;-1.506;2023-02-13T18:05:18;14.60;41.20
34644;DHT22;26931;43.498;-1.506;2023-02-13T18:07:45;14.50;41.20
34644;DHT22;26931;43.498;-1.506;2023-02-13T18:12:43;14.50;41.40
34644;DHT22;26931;43.498;-1.506;2023-02-13T18:15:09;14.40;41.40
34644;DHT22;26931;43.498;-1.506;2023-02-13T18:17:35;14.40;41.40